Weather at Campo di Volo UFO

Public forecast

Using degrees Celsius for public forecast. Weather courtesy of forecast.io.

Closest aviation weather report (METAR) to Campo di Volo UFO

Report is more than 6 hours old.

Closest report is Frosinone Air Base, 8.1 nm (14.9 km) N.

2024/06/24 05:55 (retrieved 1 day ago)

LIRH 240555Z 00000KT 9999 SCT035 18/17 Q1010 RMK BKN MON LIB NC VIS MIN 9999 WIND THR16 00000KT BLU

Closest aviation forecast (TAF) to Campo di Volo UFO

Forecast is more than 12 hours old.

Closest forecast is Ciampino–G. B. Pastine International Airport, 35.4 nm (65.5 km) WNW.

2024/06/24 06:20 (retrieved 1 day ago)

TAF LIRA 250500Z 2506/2606 VRB05KT 9999 FEW040 BECMG 2510/2512 18012KT BECMG 2517/2519 VRB05KT